| time (UTC) | temp F | wind direction | speed MPH | gust MPH | rain 1hr in | rain 24hr in | rain mn in | humidity % | barometer mb |
| 20260505124503 | 76 | 279 | 4.0 | 6.0 | 0.00 | 0.00 | 0.00 | 31 | 1005.8 |
| 20260505123603 | 76 | 291 | 4.0 | 7.0 | 0.00 | 0.00 | 0.00 | 32 | 1005.8 |
| 20260505122703 | 75 | 54 | 2.0 | 8.0 | 0.00 | 0.00 | 0.00 | 31 | 1005.8 |
| 20260505121803 | 76 | 331 | 2.0 | 6.0 | 0.00 | 0.00 | 0.00 | 29 | 1006.0 |
| 20260505120903 | 78 | 314 | 2.0 | 4.0 | 0.00 | 0.00 | 0.00 | 27 | 1006.2 |
| 20260505120004 | 78 | 312 | 2.0 | 8.0 | 0.00 | 0.00 | 0.00 | 29 | 1006.0 |
| 20260505115403 | 78 | 315 | 4.0 | 8.0 | 0.00 | 0.00 | 0.00 | 31 | 1006.0 |
| 20260505114503 | 78 | 311 | 2.0 | 4.0 | 0.00 | 0.00 | 0.00 | 32 | 1006.3 |
| 20260505113603 | 76 | 297 | 3.0 | 11.0 | 0.00 | 0.00 | 0.00 | 33 | 1006.2 |
| 20260505112703 | 77 | 275 | 2.0 | 6.0 | 0.00 | 0.00 | 0.00 | 34 | 1006.4 |
| 20260505111803 | 76 | 334 | 1.0 | 8.0 | 0.00 | 0.00 | 0.00 | 34 | 1006.5 |
| 20260505110903 | 75 | 282 | 6.0 | 8.0 | 0.00 | 0.00 | 0.00 | 35 | 1006.7 |
| 20260505101803 | 71 | 271 | 2.0 | 7.0 | 0.00 | 0.00 | 0.00 | 43 | 1007.3 |
| 20260505100903 | 74 | 272 | 1.0 | 7.0 | 0.00 | 0.00 | 0.00 | 42 | 1007.3 |
| 20260505100003 | 75 | 284 | 2.0 | 4.0 | 0.00 | 0.00 | 0.00 | 43 | 1007.4 |
| 20260505095403 | 73 | 279 | 3.0 | 4.0 | 0.00 | 0.00 | 0.00 | 45 | 1007.5 |
| 20260505094503 | 72 | 269 | 2.0 | 7.0 | 0.00 | 0.00 | 0.00 | 45 | 1007.7 |
| 20260505093603 | 72 | 282 | 2.0 | 7.0 | 0.00 | 0.00 | 0.00 | 48 | 1007.7 |
| 20260505092703 | 71 | 274 | 3.0 | 7.0 | 0.00 | 0.00 | 0.00 | 49 | 1007.6 |
| 20260505091803 | 71 | 279 | 1.0 | 4.0 | 0.00 | 0.00 | 0.00 | 50 | 1007.7 |
| 20260505090903 | 71 | 298 | 2.0 | 6.0 | 0.00 | 0.00 | 0.00 | 50 | 1007.8 |
| 20260505090003 | 70 | 301 | 3.0 | 4.0 | 0.00 | 0.00 | 0.00 | 52 | 1008.1 |
| 20260505085403 | 70 | 66 | 1.0 | 4.0 | 0.00 | 0.00 | 0.00 | 53 | 1007.9 |
| 20260505084503 | 68 | 79 | 0.0 | 6.0 | 0.00 | 0.00 | 0.00 | 55 | 1007.9 |
| 20260505083603 | 68 | 85 | 3.0 | 6.0 | 0.00 | 0.00 | 0.00 | 56 | 1008.0 |
| 20260505082703 | 66 | 45 | 3.0 | 7.0 | 0.00 | 0.00 | 0.00 | 57 | 1007.9 |
| 20260505081803 | 68 | 48 | 2.0 | 4.0 | 0.00 | 0.00 | 0.00 | 56 | 1007.9 |
| 20260505080903 | 67 | 65 | 2.0 | 4.0 | 0.00 | 0.00 | 0.00 | 59 | 1008.3 |
| 20260505080003 | 68 | 41 | 1.0 | 4.0 | 0.00 | 0.00 | 0.00 | 57 | 1008.1 |
| 20260505075403 | 66 | 31 | 2.0 | 6.0 | 0.00 | 0.00 | 0.00 | 60 | 1008.0 |
| 20260505074503 | 64 | 55 | 3.0 | 6.0 | 0.00 | 0.00 | 0.00 | 66 | 1008.4 |
| 20260505073603 | 65 | 20 | 1.0 | 4.0 | 0.00 | 0.00 | 0.00 | 64 | 1008.4 |
| 20260505072703 | 67 | 345 | 1.0 | 4.0 | 0.00 | 0.00 | 0.00 | 60 | 1008.6 |
| 20260505071803 | 65 | 279 | 1.0 | 4.0 | 0.00 | 0.00 | 0.00 | 65 | 1008.5 |
| 20260505070903 | 64 | 277 | 2.0 | 4.0 | 0.00 | 0.00 | 0.00 | 65 | 1008.5 |
| 20260505070004 | 65 | 278 | 2.0 | 4.0 | 0.00 | 0.00 | 0.00 | 63 | 1008.5 |
| 20260505065403 | 64 | 285 | 3.0 | 4.0 | 0.00 | 0.00 | 0.00 | 65 | 1008.6 |
| 20260505064503 | 65 | 283 | 0.0 | 4.0 | 0.00 | 0.00 | 0.00 | 63 | 1008.6 |
| 20260505063603 | 62 | 316 | 2.0 | 4.0 | 0.00 | 0.00 | 0.00 | 68 | 1008.5 |
| 20260505062703 | 64 | 6 | 0.0 | 2.0 | 0.00 | 0.00 | 0.00 | 64 | 1008.6 |
| 20260505061803 | 61 | 10 | 1.0 | 2.0 | 0.00 | 0.00 | 0.00 | 68 | 1008.8 |
| 20260505060903 | 62 | 306 | 1.0 | 2.0 | 0.00 | 0.00 | 0.00 | 66 | 1008.6 |
| 20260505060003 | 59 | 301 | 2.0 | 4.0 | 0.00 | 0.00 | 0.00 | 72 | 1008.6 |
| 20260505055403 | 60 | 323 | 2.0 | 2.0 | 0.00 | 0.00 | 0.00 | 70 | 1008.9 |
| 20260505054503 | 59 | 312 | 1.0 | 4.0 | 0.00 | 0.00 | 0.00 | 71 | 1008.6 |
| 20260505053603 | 58 | 300 | 2.0 | 6.0 | 0.00 | 0.00 | 0.00 | 73 | 1008.7 |
| 20260505052703 | 59 | 347 | 2.0 | 2.0 | 0.00 | 0.00 | 0.00 | 71 | 1008.5 |
| 20260505051803 | 59 | 355 | 0.0 | 4.0 | 0.00 | 0.00 | 0.00 | 69 | 1008.5 |
| 20260505050903 | 58 | 354 | 1.0 | 2.0 | 0.00 | 0.00 | 0.00 | 71 | 1008.6 |
| 20260505040903 | 56 | 36 | 2.0 | 4.0 | 0.00 | 0.00 | 0.00 | 73 | 1008.8 |
| 20260505040004 | 56 | 33 | 2.0 | 4.0 | 0.00 | 0.00 | 0.00 | 74 | 1008.6 |
| 20260505035403 | 56 | 15 | 1.0 | 4.0 | 0.00 | 0.00 | 0.00 | 74 | 1008.6 |
| 20260505034503 | 56 | 334 | 2.0 | 2.0 | 0.00 | 0.00 | 0.00 | 75 | 1008.7 |
| 20260505033603 | 55 | 335 | 1.0 | 2.0 | 0.00 | 0.00 | 0.00 | 76 | 1008.7 |
| 20260505032703 | 55 | 337 | 1.0 | 2.0 | 0.00 | 0.00 | 0.00 | 76 | 1008.8 |
| 20260505031803 | 55 | 341 | 1.0 | 2.0 | 0.00 | 0.00 | 0.00 | 77 | 1008.8 |
| 20260505030903 | 56 | 11 | 1.0 | 2.0 | 0.00 | 0.00 | 0.00 | 76 | 1008.8 |
| 20260505030003 | 56 | 331 | 1.0 | 2.0 | 0.00 | 0.00 | 0.00 | 77 | 1008.9 |
| 20260505025403 | 56 | 337 | 0.0 | 2.0 | 0.00 | 0.00 | 0.00 | 76 | 1008.8 |
| 20260505024503 | 56 | 338 | 1.0 | 2.0 | 0.00 | 0.00 | 0.00 | 75 | 1008.9 |
| 20260505023603 | 57 | 10 | 2.0 | 2.0 | 0.00 | 0.00 | 0.00 | 72 | 1008.9 |
| 20260505022703 | 57 | 328 | 0.0 | 2.0 | 0.00 | 0.00 | 0.00 | 70 | 1009.1 |
| 20260505021803 | 58 | 326 | 1.0 | 2.0 | 0.00 | 0.00 | 0.00 | 68 | 1008.9 |
| 20260505020903 | 59 | 351 | 2.0 | 2.0 | 0.00 | 0.00 | 0.00 | 66 | 1009.0 |
| 20260505020004 | 59 | 2 | 1.0 | 2.0 | 0.00 | 0.00 | 0.00 | 65 | 1009.2 |
| 20260505015403 | 60 | 13 | 1.0 | 4.0 | 0.00 | 0.00 | 0.00 | 64 | 1009.0 |
| 20260505014503 | 60 | 24 | 2.0 | 4.0 | 0.00 | 0.00 | 0.00 | 63 | 1009.0 |
| 20260505013603 | 60 | 19 | 1.0 | 6.0 | 0.00 | 0.00 | 0.00 | 63 | 1009.1 |
| 20260505012703 | 60 | 37 | 1.0 | 4.0 | 0.00 | 0.00 | 0.00 | 64 | 1009.1 |
| 20260505011803 | 60 | 31 | 1.0 | 4.0 | 0.00 | 0.00 | 0.00 | 65 | 1009.2 |
| 20260505010903 | 60 | 2 | 1.0 | 4.0 | 0.00 | 0.00 | 0.00 | 65 | 1009.0 |
| 20260505010003 | 60 | 318 | 1.0 | 4.0 | 0.00 | 0.00 | 0.00 | 67 | 1009.2 |
| 20260505005403 | 60 | 313 | 1.0 | 4.0 | 0.00 | 0.00 | 0.00 | 67 | 1009.3 |
| 20260505004503 | 60 | 296 | 2.0 | 4.0 | 0.00 | 0.00 | 0.00 | 66 | 1009.6 |
| 20260505003603 | 60 | 311 | 1.0 | 4.0 | 0.00 | 0.00 | 0.00 | 66 | 1009.9 |
| 20260505002703 | 60 | 301 | 2.0 | 4.0 | 0.00 | 0.00 | 0.00 | 65 | 1009.8 |
| 20260505001803 | 61 | 295 | 2.0 | 4.0 | 0.00 | 0.00 | 0.00 | 65 | 1009.8 |
| 20260505000903 | 61 | 291 | 2.0 | 4.0 | 0.00 | 0.00 | 0.00 | 65 | 1009.9 |
| 20260505000003 | 61 | 282 | 4.0 | 7.0 | 0.00 | 0.00 | 0.00 | 64 | 1010.0 |
| 20260504235403 | 62 | 276 | 2.0 | 7.0 | 0.00 | 0.00 | 0.00 | 63 | 1010.2 |
| 20260504234503 | 63 | 290 | 5.0 | 7.0 | 0.00 | 0.00 | 0.00 | 59 | 1010.5 |
| 20260504233603 | 63 | 289 | 4.0 | 8.0 | 0.00 | 0.00 | 0.00 | 59 | 1010.6 |
| 20260504232703 | 63 | 277 | 2.0 | 4.0 | 0.00 | 0.00 | 0.00 | 58 | 1010.8 |
| 20260504231803 | 64 | 290 | 3.0 | 9.0 | 0.00 | 0.00 | 0.00 | 56 | 1010.9 |
| 20260504230903 | 63 | 293 | 4.0 | 8.0 | 0.00 | 0.00 | 0.00 | 57 | 1011.0 |
| 20260504230003 | 63 | 279 | 4.0 | 7.0 | 0.00 | 0.00 | 0.00 | 58 | 1010.9 |
| 20260504225403 | 62 | 274 | 3.0 | 4.0 | 0.00 | 0.00 | 0.00 | 59 | 1011.1 |
| 20260504224503 | 62 | 277 | 2.0 | 4.0 | 0.00 | 0.00 | 0.00 | 60 | 1011.0 |
| 20260504223603 | 63 | 301 | 2.0 | 4.0 | 0.00 | 0.00 | 0.00 | 59 | 1010.6 |
| 20260504222703 | 63 | 302 | 2.0 | 4.0 | 0.00 | 0.00 | 0.00 | 56 | 1010.5 |
| 20260504221803 | 63 | 294 | 2.0 | 6.0 | 0.00 | 0.00 | 0.00 | 55 | 1010.6 |
| 20260504220903 | 64 | 7 | 1.0 | 6.0 | 0.00 | 0.00 | 0.00 | 55 | 1010.1 |
| 20260504220003 | 64 | 3 | 2.0 | 6.0 | 0.00 | 0.00 | 0.00 | 54 | 1010.5 |
| 20260504215403 | 64 | 342 | 2.0 | 4.0 | 0.00 | 0.00 | 0.00 | 54 | 1010.5 |
| 20260504214503 | 64 | 347 | 2.0 | 4.0 | 0.00 | 0.00 | 0.00 | 53 | 1010.6 |
| 20260504213603 | 64 | 28 | 2.0 | 4.0 | 0.00 | 0.00 | 0.00 | 53 | 1010.4 |
| 20260504212703 | 64 | 19 | 1.0 | 4.0 | 0.00 | 0.00 | 0.00 | 54 | 1010.7 |
| 20260504211803 | 64 | 25 | 1.0 | 4.0 | 0.00 | 0.00 | 0.00 | 52 | 1010.7 |
| 20260504210903 | 65 | 31 | 2.0 | 4.0 | 0.00 | 0.00 | 0.00 | 50 | 1010.8 |
| 20260504210004 | 66 | 32 | 2.0 | 4.0 | 0.00 | 0.00 | 0.00 | 49 | 1010.7 |
| 20260504205403 | 66 | 37 | 2.0 | 6.0 | 0.00 | 0.00 | 0.00 | 49 | 1010.6 |
| 20260504204503 | 66 | 35 | 2.0 | 6.0 | 0.00 | 0.00 | 0.00 | 49 | 1010.7 |
| 20260504203603 | 65 | 40 | 2.0 | 4.0 | 0.00 | 0.00 | 0.00 | 50 | 1010.7 |
| 20260504202703 | 66 | 36 | 2.0 | 4.0 | 0.00 | 0.00 | 0.00 | 50 | 1010.8 |
| 20260504201803 | 66 | 32 | 1.0 | 6.0 | 0.00 | 0.00 | 0.00 | 49 | 1010.7 |
| 20260504200903 | 66 | 23 | 1.0 | 4.0 | 0.00 | 0.00 | 0.00 | 50 | 1010.8 |
| 20260504200003 | 66 | 9 | 1.0 | 6.0 | 0.00 | 0.00 | 0.00 | 49 | 1010.8 |
| 20260504195403 | 66 | 349 | 1.0 | 4.0 | 0.00 | 0.00 | 0.00 | 49 | 1010.8 |
| 20260504194503 | 67 | 324 | 1.0 | 4.0 | 0.00 | 0.00 | 0.00 | 49 | 1010.8 |
| 20260504193603 | 67 | 310 | 2.0 | 4.0 | 0.00 | 0.00 | 0.00 | 48 | 1010.9 |
| 20260504192703 | 67 | 327 | 2.0 | 4.0 | 0.00 | 0.00 | 0.00 | 48 | 1010.9 |
| 20260504191803 | 67 | 324 | 2.0 | 4.0 | 0.00 | 0.00 | 0.00 | 47 | 1010.7 |
| 20260504190903 | 67 | 297 | 1.0 | 4.0 | 0.00 | 0.00 | 0.00 | 47 | 1010.6 |
| 20260504190003 | 67 | 349 | 1.0 | 2.0 | 0.00 | 0.00 | 0.00 | 45 | 1010.6 |
| 20260504185403 | 68 | 304 | 0.0 | 2.0 | 0.00 | 0.00 | 0.00 | 44 | 1010.6 |
| 20260504184503 | 68 | 329 | 2.0 | 4.0 | 0.00 | 0.00 | 0.00 | 44 | 1010.4 |
| 20260504183603 | 69 | 47 | 1.0 | 4.0 | 0.00 | 0.00 | 0.00 | 41 | 1010.5 |
| 20260504182703 | 69 | 45 | 1.0 | 2.0 | 0.00 | 0.00 | 0.00 | 41 | 1010.6 |
| 20260504181803 | 70 | 29 | 1.0 | 4.0 | 0.00 | 0.00 | 0.00 | 41 | 1010.5 |
| 20260504180903 | 70 | 52 | 1.0 | 4.0 | 0.00 | 0.00 | 0.00 | 40 | 1010.5 |
| 20260504180003 | 71 | 36 | 1.0 | 4.0 | 0.00 | 0.00 | 0.00 | 40 | 1010.5 |
| 20260504175403 | 71 | 35 | 2.0 | 4.0 | 0.00 | 0.00 | 0.00 | 39 | 1010.5 |
| 20260504174503 | 71 | 360 | 2.0 | 4.0 | 0.00 | 0.00 | 0.00 | 39 | 1010.5 |
| 20260504173603 | 71 | 297 | 2.0 | 2.0 | 0.00 | 0.00 | 0.00 | 39 | 1010.5 |
| 20260504172703 | 72 | 304 | 0.0 | 2.0 | 0.00 | 0.00 | 0.00 | 39 | 1010.7 |
| 20260504171803 | 72 | 298 | 0.0 | 2.0 | 0.00 | 0.00 | 0.00 | 39 | 1010.7 |
| 20260504170903 | 72 | 294 | 0.0 | 4.0 | 0.00 | 0.00 | 0.00 | 38 | 1011.0 |
| 20260504150903 | 76 | 294 | 4.0 | 6.0 | 0.00 | 0.00 | 0.00 | 34 | 1010.9 |
| 20260504140903 | 78 | 263 | 3.0 | 6.0 | 0.00 | 0.00 | 0.00 | 31 | 1011.5 |